sensor_id;sensor_type;location;lat;lon;timestamp;pressure;altitude;pressure_sealevel;temperature;humidity
71424;BME280;59240;51.370;-0.486;2023-04-30T00:02:21;102174.19;;;10.66;72.54
71424;BME280;59240;51.370;-0.486;2023-04-30T00:04:48;102188.09;;;10.66;72.20
71424;BME280;59240;51.370;-0.486;2023-04-30T00:07:14;102191.59;;;10.64;71.92
71424;BME280;59240;51.370;-0.486;2023-04-30T00:09:41;102184.59;;;10.54;71.87
71424;BME280;59240;51.370;-0.486;2023-04-30T00:12:07;102185.47;;;10.53;71.99
71424;BME280;59240;51.370;-0.486;2023-04-30T00:14:34;102195.03;;;10.54;73.12
71424;BME280;59240;51.370;-0.486;2023-04-30T00:17:01;102197.63;;;10.48;72.43
71424;BME280;59240;51.370;-0.486;2023-04-30T00:19:28;102189.81;;;10.38;73.81
71424;BME280;59240;51.370;-0.486;2023-04-30T00:21:55;102182.84;;;10.31;73.61
71424;BME280;59240;51.370;-0.486;2023-04-30T00:24:23;102181.09;;;10.24;72.67
71424;BME280;59240;51.370;-0.486;2023-04-30T00:26:50;102183.66;;;10.21;73.07
71424;BME280;59240;51.370;-0.486;2023-04-30T00:29:17;102184.56;;;10.26;72.98
71424;BME280;59240;51.370;-0.486;2023-04-30T00:31:43;102203.66;;;10.28;73.28
71424;BME280;59240;51.370;-0.486;2023-04-30T00:34:10;102184.53;;;10.20;73.29
71424;BME280;59240;51.370;-0.486;2023-04-30T00:36:37;102189.75;;;10.19;74.30
71424;BME280;59240;51.370;-0.486;2023-04-30T00:39:05;102176.69;;;10.12;72.79
71424;BME280;59240;51.370;-0.486;2023-04-30T00:41:33;102185.41;;;10.16;74.61
71424;BME280;59240;51.370;-0.486;2023-04-30T00:44:00;102173.22;;;10.07;72.69
71424;BME280;59240;51.370;-0.486;2023-04-30T00:46:30;102173.19;;;10.00;74.18
71424;BME280;59240;51.370;-0.486;2023-04-30T00:48:57;102174.06;;;9.97;73.86
71424;BME280;59240;51.370;-0.486;2023-04-30T00:51:25;102167.97;;;9.89;73.83
71424;BME280;59240;51.370;-0.486;2023-04-30T00:53:52;102165.38;;;9.91;74.33
71424;BME280;59240;51.370;-0.486;2023-04-30T00:56:19;102156.66;;;9.76;74.16
71424;BME280;59240;51.370;-0.486;2023-04-30T00:58:46;102162.75;;;9.84;73.31
71424;BME280;59240;51.370;-0.486;2023-04-30T01:01:13;102159.25;;;9.81;74.72
71424;BME280;59240;51.370;-0.486;2023-04-30T01:03:41;102156.66;;;9.76;75.36
71424;BME280;59240;51.370;-0.486;2023-04-30T01:06:10;102178.38;;;9.83;74.40
71424;BME280;59240;51.370;-0.486;2023-04-30T01:08:37;102175.72;;;9.78;74.46
71424;BME280;59240;51.370;-0.486;2023-04-30T01:11:16;102140.97;;;9.58;74.35
71424;BME280;59240;51.370;-0.486;2023-04-30T01:14:26;102173.09;;;9.74;75.73
71424;BME280;59240;51.370;-0.486;2023-04-30T01:17:16;102149.63;;;9.57;74.37
71424;BME280;59240;51.370;-0.486;2023-04-30T01:19:45;102142.69;;;9.56;74.92
71424;BME280;59240;51.370;-0.486;2023-04-30T01:25:06;102160.91;;;9.60;76.65
71424;BME280;59240;51.370;-0.486;2023-04-30T01:30:35;102147.88;;;9.51;75.85
71424;BME280;59240;51.370;-0.486;2023-04-30T01:33:05;102146.09;;;9.46;75.18
71424;BME280;59240;51.370;-0.486;2023-04-30T01:50:04;102114.72;;;9.12;76.35
71424;BME280;59240;51.370;-0.486;2023-04-30T01:52:55;102146.03;;;9.29;75.94
71424;BME280;59240;51.370;-0.486;2023-04-30T01:55:35;102138.19;;;9.23;76.50
71424;BME280;59240;51.370;-0.486;2023-04-30T01:58:08;102144.28;;;9.20;76.53
71424;BME280;59240;51.370;-0.486;2023-04-30T02:00:38;102139.91;;;9.18;75.60
71424;BME280;59240;51.370;-0.486;2023-04-30T02:03:04;102142.50;;;9.16;75.00
71424;BME280;59240;51.370;-0.486;2023-04-30T02:05:31;102145.94;;;9.12;74.88
71424;BME280;59240;51.370;-0.486;2023-04-30T02:07:58;102140.72;;;9.06;76.31
71424;BME280;59240;51.370;-0.486;2023-04-30T02:10:26;102135.44;;;8.97;75.23
71424;BME280;59240;51.370;-0.486;2023-04-30T02:12:52;102109.38;;;8.80;75.55
71424;BME280;59240;51.370;-0.486;2023-04-30T02:15:19;102122.41;;;8.89;75.78
71424;BME280;59240;51.370;-0.486;2023-04-30T02:17:46;102133.72;;;8.96;75.29
71424;BME280;59240;51.370;-0.486;2023-04-30T02:20:13;102139.78;;;8.95;75.84
71424;BME280;59240;51.370;-0.486;2023-04-30T02:22:39;102118.03;;;8.79;76.03
71424;BME280;59240;51.370;-0.486;2023-04-30T02:25:06;102121.44;;;8.76;76.63
71424;BME280;59240;51.370;-0.486;2023-04-30T02:27:33;102124.91;;;8.75;76.64
71424;BME280;59240;51.370;-0.486;2023-04-30T02:30:00;102133.63;;;8.84;76.10
71424;BME280;59240;51.370;-0.486;2023-04-30T02:32:27;102126.63;;;8.73;76.80
71424;BME280;59240;51.370;-0.486;2023-04-30T02:34:53;102120.53;;;8.70;76.16
71424;BME280;59240;51.370;-0.486;2023-04-30T02:37:20;102107.44;;;8.56;76.66
71424;BME280;59240;51.370;-0.486;2023-04-30T02:39:49;102135.28;;;8.72;77.41
71424;BME280;59240;51.370;-0.486;2023-04-30T02:42:16;102129.19;;;8.67;76.53
71424;BME280;59240;51.370;-0.486;2023-04-30T02:44:43;102133.53;;;8.68;76.56
71424;BME280;59240;51.370;-0.486;2023-04-30T02:47:09;102127.44;;;8.65;77.04
71424;BME280;59240;51.370;-0.486;2023-04-30T02:49:36;102137.84;;;8.66;76.46
71424;BME280;59240;51.370;-0.486;2023-04-30T02:52:03;102139.56;;;8.67;76.17
71424;BME280;59240;51.370;-0.486;2023-04-30T02:54:29;102135.25;;;8.66;76.57
71424;BME280;59240;51.370;-0.486;2023-04-30T02:56:56;102146.50;;;8.65;77.28
71424;BME280;59240;51.370;-0.486;2023-04-30T02:59:22;102133.47;;;8.62;76.45
71424;BME280;59240;51.370;-0.486;2023-04-30T03:01:49;102138.66;;;8.62;76.33
71424;BME280;59240;51.370;-0.486;2023-04-30T03:04:16;102123.88;;;8.54;77.05
71424;BME280;59240;51.370;-0.486;2023-04-30T03:06:42;102121.28;;;8.52;76.51
71424;BME280;59240;51.370;-0.486;2023-04-30T03:09:09;102136.94;;;8.60;77.50
71424;BME280;59240;51.370;-0.486;2023-04-30T03:11:36;102105.59;;;8.40;77.15
71424;BME280;59240;51.370;-0.486;2023-04-30T03:14:03;102131.69;;;8.55;77.16
71424;BME280;59240;51.370;-0.486;2023-04-30T03:16:30;102133.41;;;8.56;77.05
71424;BME280;59240;51.370;-0.486;2023-04-30T03:18:57;102121.19;;;8.43;77.09
71424;BME280;59240;51.370;-0.486;2023-04-30T03:21:23;102131.56;;;8.43;nan
71424;BME280;59240;51.370;-0.486;2023-04-30T03:23:50;102120.31;;;8.41;77.53
71424;BME280;59240;51.370;-0.486;2023-04-30T03:26:18;102122.97;;;8.47;77.37
71424;BME280;59240;51.370;-0.486;2023-04-30T03:28:46;102135.09;;;8.48;77.63
71424;BME280;59240;51.370;-0.486;2023-04-30T03:31:13;102126.38;;;8.40;77.73
71424;BME280;59240;51.370;-0.486;2023-04-30T03:33:39;102132.50;;;8.46;77.88
71424;BME280;59240;51.370;-0.486;2023-04-30T03:36:06;102115.03;;;8.32;77.53
71424;BME280;59240;51.370;-0.486;2023-04-30T03:38:32;102115.94;;;8.35;77.65
71424;BME280;59240;51.370;-0.486;2023-04-30T03:40:59;102120.22;;;8.35;77.60
71424;BME280;59240;51.370;-0.486;2023-04-30T03:43:26;102125.47;;;8.36;78.06
71424;BME280;59240;51.370;-0.486;2023-04-30T03:45:52;102114.13;;;8.30;77.24
71424;BME280;59240;51.370;-0.486;2023-04-30T03:48:19;102127.22;;;8.37;78.25
71424;BME280;59240;51.370;-0.486;2023-04-30T03:50:47;102090.63;;;8.14;78.25
71424;BME280;59240;51.370;-0.486;2023-04-30T03:53:13;102120.19;;;8.30;78.12
71424;BME280;59240;51.370;-0.486;2023-04-30T03:55:40;102126.25;;;8.31;78.39
71424;BME280;59240;51.370;-0.486;2023-04-30T03:58:07;102113.25;;;8.26;78.07
71424;BME280;59240;51.370;-0.486;2023-04-30T04:00:34;102123.63;;;8.26;78.13
71424;BME280;59240;51.370;-0.486;2023-04-30T04:03:01;102119.28;;;8.27;78.35
71424;BME280;59240;51.370;-0.486;2023-04-30T04:05:27;102118.38;;;8.23;77.84
71424;BME280;59240;51.370;-0.486;2023-04-30T04:07:55;102133.09;;;8.22;78.12
71424;BME280;59240;51.370;-0.486;2023-04-30T04:10:22;102108.78;;;8.13;77.94
71424;BME280;59240;51.370;-0.486;2023-04-30T04:12:49;102120.97;;;8.20;78.28
71424;BME280;59240;51.370;-0.486;2023-04-30T04:15:16;102122.66;;;8.16;78.47
71424;BME280;59240;51.370;-0.486;2023-04-30T04:17:42;102109.59;;;8.07;78.27
71424;BME280;59240;51.370;-0.486;2023-04-30T04:20:09;102114.78;;;8.09;78.65
71424;BME280;59240;51.370;-0.486;2023-04-30T04:22:41;102115.66;;;8.09;78.25
71424;BME280;59240;51.370;-0.486;2023-04-30T04:25:08;102115.66;;;8.09;78.18
71424;BME280;59240;51.370;-0.486;2023-04-30T04:27:35;102105.19;;;8.00;78.92
71424;BME280;59240;51.370;-0.486;2023-04-30T04:30:02;102113.03;;;8.05;78.63
71424;BME280;59240;51.370;-0.486;2023-04-30T04:32:29;102116.50;;;8.04;78.28
71424;BME280;59240;51.370;-0.486;2023-04-30T04:34:56;102126.91;;;8.08;78.40
71424;BME280;59240;51.370;-0.486;2023-04-30T04:37:22;102112.06;;;7.95;79.09
71424;BME280;59240;51.370;-0.486;2023-04-30T04:39:49;102127.75;;;8.04;79.18
71424;BME280;59240;51.370;-0.486;2023-04-30T04:42:16;102120.75;;;7.97;78.73
71424;BME280;59240;51.370;-0.486;2023-04-30T04:44:43;102121.56;;;7.94;79.18
71424;BME280;59240;51.370;-0.486;2023-04-30T04:47:10;102128.53;;;7.97;78.65
71424;BME280;59240;51.370;-0.486;2023-04-30T04:49:41;102130.22;;;7.95;78.45
71424;BME280;59240;51.370;-0.486;2023-04-30T04:52:10;102122.44;;;7.95;79.09
71424;BME280;59240;51.370;-0.486;2023-04-30T04:54:36;102129.41;;;7.96;78.29
71424;BME280;59240;51.370;-0.486;2023-04-30T04:57:05;102128.53;;;7.97;79.18
71424;BME280;59240;51.370;-0.486;2023-04-30T04:59:32;102129.41;;;7.96;78.93
71424;BME280;59240;51.370;-0.486;2023-04-30T05:01:58;102118.09;;;7.91;79.00
71424;BME280;59240;51.370;-0.486;2023-04-30T05:04:25;102097.22;;;7.82;78.99
71424;BME280;59240;51.370;-0.486;2023-04-30T05:06:53;102117.22;;;7.92;79.44
71424;BME280;59240;51.370;-0.486;2023-04-30T05:09:20;102105.97;;;7.90;79.17
71424;BME280;59240;51.370;-0.486;2023-04-30T05:11:46;102104.25;;;7.92;79.49
71424;BME280;59240;51.370;-0.486;2023-04-30T05:14:16;102127.81;;;8.10;79.26
71424;BME280;59240;51.370;-0.486;2023-04-30T05:16:43;102110.38;;;8.00;79.88
71424;BME280;59240;51.370;-0.486;2023-04-30T05:19:09;102120.84;;;8.09;79.22
71424;BME280;59240;51.370;-0.486;2023-04-30T05:21:36;102112.19;;;8.07;79.93
71424;BME280;59240;51.370;-0.486;2023-04-30T05:24:03;102134.84;;;8.23;79.83
71424;BME280;59240;51.370;-0.486;2023-04-30T05:26:30;102132.28;;;8.28;79.93
71424;BME280;59240;51.370;-0.486;2023-04-30T05:28:56;102121.88;;;8.25;79.56
71424;BME280;59240;51.370;-0.486;2023-04-30T05:31:23;102133.22;;;8.35;80.22
71424;BME280;59240;51.370;-0.486;2023-04-30T05:33:49;102105.50;;;8.31;79.68
71424;BME280;59240;51.370;-0.486;2023-04-30T05:36:16;102117.78;;;8.47;80.25
71424;BME280;59240;51.370;-0.486;2023-04-30T05:38:43;102139.53;;;8.58;80.28
71424;BME280;59240;51.370;-0.486;2023-04-30T05:41:12;102122.22;;;8.60;80.07
71424;BME280;59240;51.370;-0.486;2023-04-30T05:43:39;102102.28;;;8.59;80.71
71424;BME280;59240;51.370;-0.486;2023-04-30T05:46:05;102116.25;;;8.76;80.50
71424;BME280;59240;51.370;-0.486;2023-04-30T05:48:32;102113.69;;;8.84;80.37
71424;BME280;59240;51.370;-0.486;2023-04-30T05:50:59;102113.78;;;8.93;81.24
71424;BME280;59240;51.370;-0.486;2023-04-30T05:53:28;102106.84;;;8.95;81.02
71424;BME280;59240;51.370;-0.486;2023-04-30T05:55:55;102130.38;;;9.18;81.41
71424;BME280;59240;51.370;-0.486;2023-04-30T05:58:22;102136.50;;;9.29;81.06
71424;BME280;59240;51.370;-0.486;2023-04-30T06:00:49;102119.16;;;9.31;81.04
71424;BME280;59240;51.370;-0.486;2023-04-30T06:03:17;102128.75;;;9.45;80.99
71424;BME280;59240;51.370;-0.486;2023-04-30T06:05:45;102117.53;;;9.50;80.94
71424;BME280;59240;51.370;-0.486;2023-04-30T06:08:12;102125.41;;;9.70;81.12
71424;BME280;59240;51.370;-0.486;2023-04-30T06:10:39;102106.31;;;9.68;81.24
71424;BME280;59240;51.370;-0.486;2023-04-30T06:13:06;102125.47;;;9.89;81.21
71424;BME280;59240;51.370;-0.486;2023-04-30T06:15:32;102130.69;;;10.13;81.05
71424;BME280;59240;51.370;-0.486;2023-04-30T06:17:59;102118.59;;;10.27;81.19
71424;BME280;59240;51.370;-0.486;2023-04-30T06:20:26;102116.88;;;10.45;81.64
71424;BME280;59240;51.370;-0.486;2023-04-30T06:22:53;102135.97;;;10.74;81.11
71424;BME280;59240;51.370;-0.486;2023-04-30T06:25:19;102118.56;;;10.85;81.38
71424;BME280;59240;51.370;-0.486;2023-04-30T06:27:46;102124.63;;;10.98;80.75
71424;BME280;59240;51.370;-0.486;2023-04-30T06:30:13;102129.81;;;11.13;80.93
71424;BME280;59240;51.370;-0.486;2023-04-30T06:32:39;102121.94;;;11.27;80.59
71424;BME280;59240;51.370;-0.486;2023-04-30T06:35:07;102133.16;;;11.46;80.30
71424;BME280;59240;51.370;-0.486;2023-04-30T06:37:34;102146.13;;;11.66;80.29
71424;BME280;59240;51.370;-0.486;2023-04-30T06:40:04;102133.94;;;11.74;79.83
71424;BME280;59240;51.370;-0.486;2023-04-30T06:42:32;102111.25;;;11.79;79.61
71424;BME280;59240;51.370;-0.486;2023-04-30T06:45:01;102137.25;;;12.00;79.45
71424;BME280;59240;51.370;-0.486;2023-04-30T06:47:31;102136.31;;;12.12;78.83
71424;BME280;59240;51.370;-0.486;2023-04-30T06:50:05;102128.44;;;12.20;79.15
71424;BME280;59240;51.370;-0.486;2023-04-30T06:52:33;102152.66;;;12.40;78.79
71424;BME280;59240;51.370;-0.486;2023-04-30T06:55:00;102142.19;;;12.46;78.10
71424;BME280;59240;51.370;-0.486;2023-04-30T06:57:46;102115.22;;;12.40;78.58
71424;BME280;59240;51.370;-0.486;2023-04-30T07:00:13;102136.81;;;12.62;77.82
71424;BME280;59240;51.370;-0.486;2023-04-30T07:02:43;102120.22;;;12.66;78.00
71424;BME280;59240;51.370;-0.486;2023-04-30T07:05:12;102134.88;;;12.82;77.95
71424;BME280;59240;51.370;-0.486;2023-04-30T07:07:41;102133.03;;;12.93;76.71
71424;BME280;59240;51.370;-0.486;2023-04-30T07:10:08;102133.84;;;13.00;76.47
71424;BME280;59240;51.370;-0.486;2023-04-30T07:12:38;102133.63;;;13.20;75.96
71424;BME280;59240;51.370;-0.486;2023-04-30T07:15:15;102107.50;;;13.18;76.28
71424;BME280;59240;51.370;-0.486;2023-04-30T07:17:42;102106.53;;;13.27;75.37
71424;BME280;59240;51.370;-0.486;2023-04-30T07:20:10;102133.34;;;13.47;75.45
71424;BME280;59240;51.370;-0.486;2023-04-30T07:22:38;102129.78;;;13.51;75.87
71424;BME280;59240;51.370;-0.486;2023-04-30T07:25:05;102111.44;;;13.54;75.44
71424;BME280;59240;51.370;-0.486;2023-04-30T07:27:32;102120.88;;;13.66;75.25
71424;BME280;59240;51.370;-0.486;2023-04-30T07:29:59;102115.47;;;13.78;73.71
71424;BME280;59240;51.370;-0.486;2023-04-30T07:32:26;102130.91;;;13.96;73.41
71424;BME280;59240;51.370;-0.486;2023-04-30T07:34:53;102125.53;;;14.06;74.26
71424;BME280;59240;51.370;-0.486;2023-04-30T07:37:19;102102.88;;;14.03;73.81
71424;BME280;59240;51.370;-0.486;2023-04-30T07:39:47;102110.41;;;14.24;73.01
71424;BME280;59240;51.370;-0.486;2023-04-30T07:42:14;102132.81;;;14.44;72.61
71424;BME280;59240;51.370;-0.486;2023-04-30T07:44:43;102125.72;;;14.52;72.80
71424;BME280;59240;51.370;-0.486;2023-04-30T07:47:13;102114.19;;;14.61;72.54
71424;BME280;59240;51.370;-0.486;2023-04-30T07:49:45;102126.19;;;14.75;71.82
71424;BME280;59240;51.370;-0.486;2023-04-30T07:52:13;102125.06;;;14.89;72.01
71424;BME280;59240;51.370;-0.486;2023-04-30T07:54:39;102124.94;;;14.95;71.54
71424;BME280;59240;51.370;-0.486;2023-04-30T07:57:06;102122.09;;;15.07;71.22
71424;BME280;59240;51.370;-0.486;2023-04-30T07:59:33;102138.19;;;15.33;71.14
71424;BME280;59240;51.370;-0.486;2023-04-30T08:02:07;102124.94;;;15.40;70.72
71424;BME280;59240;51.370;-0.486;2023-04-30T08:04:37;102111.63;;;15.49;69.83
71424;BME280;59240;51.370;-0.486;2023-04-30T08:07:04;102140.81;;;15.78;69.43
71424;BME280;59240;51.370;-0.486;2023-04-30T08:09:30;102121.47;;;15.81;69.65
71424;BME280;59240;51.370;-0.486;2023-04-30T08:11:58;102136.78;;;16.01;69.02
71424;BME280;59240;51.370;-0.486;2023-04-30T08:14:24;102125.41;;;16.00;68.97
71424;BME280;59240;51.370;-0.486;2023-04-30T08:16:51;102117.22;;;16.14;68.80
71424;BME280;59240;51.370;-0.486;2023-04-30T08:19:18;102119.50;;;16.28;68.41
71424;BME280;59240;51.370;-0.486;2023-04-30T08:21:45;102113.84;;;16.43;67.98
71424;BME280;59240;51.370;-0.486;2023-04-30T08:24:11;102106.44;;;16.59;67.40
71424;BME280;59240;51.370;-0.486;2023-04-30T08:26:38;102119.06;;;16.80;67.29
71424;BME280;59240;51.370;-0.486;2023-04-30T08:29:04;102112.56;;;16.93;67.02
71424;BME280;59240;51.370;-0.486;2023-04-30T08:31:34;102135.50;;;17.21;66.30
71424;BME280;59240;51.370;-0.486;2023-04-30T08:34:01;102097.00;;;17.17;65.91
71424;BME280;59240;51.370;-0.486;2023-04-30T08:36:28;102124.91;;;17.54;64.76
71424;BME280;59240;51.370;-0.486;2023-04-30T08:38:54;102109.00;;;17.57;64.98
71424;BME280;59240;51.370;-0.486;2023-04-30T08:41:25;102098.94;;;17.71;64.56
71424;BME280;59240;51.370;-0.486;2023-04-30T08:43:52;102104.00;;;17.77;63.84
71424;BME280;59240;51.370;-0.486;2023-04-30T08:46:19;102120.78;;;18.02;64.21
71424;BME280;59240;51.370;-0.486;2023-04-30T08:48:46;102104.84;;;18.07;62.84
71424;BME280;59240;51.370;-0.486;2023-04-30T08:51:16;102116.66;;;18.22;62.63
71424;BME280;59240;51.370;-0.486;2023-04-30T08:53:43;102082.25;;;18.25;62.20
71424;BME280;59240;51.370;-0.486;2023-04-30T08:56:10;102099.91;;;18.49;61.44
71424;BME280;59240;51.370;-0.486;2023-04-30T08:58:39;102106.50;;;18.63;60.48
71424;BME280;59240;51.370;-0.486;2023-04-30T09:01:07;102095.81;;;18.66;60.71
71424;BME280;59240;51.370;-0.486;2023-04-30T09:03:35;102112.34;;;18.72;58.63
71424;BME280;59240;51.370;-0.486;2023-04-30T09:06:07;102091.00;;;18.53;58.73
71424;BME280;59240;51.370;-0.486;2023-04-30T09:08:44;102099.59;;;18.58;57.26
71424;BME280;59240;51.370;-0.486;2023-04-30T09:13:52;102094.09;;;18.65;56.95
71424;BME280;59240;51.370;-0.486;2023-04-30T09:16:20;102091.44;;;18.66;57.65
71424;BME280;59240;51.370;-0.486;2023-04-30T09:18:47;102090.38;;;18.72;57.67
71424;BME280;59240;51.370;-0.486;2023-04-30T09:21:14;102093.28;;;18.89;55.97
71424;BME280;59240;51.370;-0.486;2023-04-30T09:23:58;102054.19;;;18.75;51.78
71424;BME280;59240;51.370;-0.486;2023-04-30T09:26:29;102074.22;;;18.81;55.80
71424;BME280;59240;51.370;-0.486;2023-04-30T09:28:57;102095.53;;;19.00;54.85
71424;BME280;59240;51.370;-0.486;2023-04-30T09:31:25;102091.34;;;18.94;54.12
71424;BME280;59240;51.370;-0.486;2023-04-30T09:33:52;102078.22;;;18.91;55.25
71424;BME280;59240;51.370;-0.486;2023-04-30T09:36:19;102068.16;;;19.02;54.32
71424;BME280;59240;51.370;-0.486;2023-04-30T09:38:46;102083.59;;;19.36;53.42
71424;BME280;59240;51.370;-0.486;2023-04-30T09:41:24;102094.69;;;19.46;52.67
71424;BME280;59240;51.370;-0.486;2023-04-30T09:43:53;102083.88;;;19.52;52.07
71424;BME280;59240;51.370;-0.486;2023-04-30T09:46:21;102071.38;;;19.57;51.12
71424;BME280;59240;51.370;-0.486;2023-04-30T09:49:05;102073.56;;;19.70;49.26
71424;BME280;59240;51.370;-0.486;2023-04-30T09:51:32;102061.69;;;19.80;51.46
71424;BME280;59240;51.370;-0.486;2023-04-30T09:54:01;102073.00;;;20.05;50.82
71424;BME280;59240;51.370;-0.486;2023-04-30T09:56:29;102064.66;;;20.14;50.05
71424;BME280;59240;51.370;-0.486;2023-04-30T09:58:59;102069.97;;;20.35;49.43
71424;BME280;59240;51.370;-0.486;2023-04-30T10:01:29;102068.66;;;20.25;49.50
71424;BME280;59240;51.370;-0.486;2023-04-30T10:03:57;102062.16;;;20.11;48.91
71424;BME280;59240;51.370;-0.486;2023-04-30T10:06:24;102074.06;;;20.21;49.16
71424;BME280;59240;51.370;-0.486;2023-04-30T10:08:55;102053.41;;;20.09;47.83
71424;BME280;59240;51.370;-0.486;2023-04-30T10:11:27;102059.03;;;20.22;48.21
71424;BME280;59240;51.370;-0.486;2023-04-30T10:13:59;102078.66;;;20.38;48.83
71424;BME280;59240;51.370;-0.486;2023-04-30T10:16:58;102072.81;;;20.52;46.33
71424;BME280;59240;51.370;-0.486;2023-04-30T10:19:33;102062.00;;;20.57;48.01
71424;BME280;59240;51.370;-0.486;2023-04-30T10:22:12;102053.53;;;20.69;47.13
71424;BME280;59240;51.370;-0.486;2023-04-30T10:24:41;102038.66;;;20.66;46.80
71424;BME280;59240;51.370;-0.486;2023-04-30T10:27:08;102059.53;;;20.72;46.68
71424;BME280;59240;51.370;-0.486;2023-04-30T10:29:35;102046.44;;;20.69;46.50
71424;BME280;59240;51.370;-0.486;2023-04-30T10:32:02;102043.81;;;20.69;46.73
71424;BME280;59240;51.370;-0.486;2023-04-30T10:37:17;102041.06;;;20.71;46.08
71424;BME280;59240;51.370;-0.486;2023-04-30T10:39:47;102051.81;;;20.68;46.68
71424;BME280;59240;51.370;-0.486;2023-04-30T10:42:18;102047.22;;;20.71;46.82
71424;BME280;59240;51.370;-0.486;2023-04-30T10:44:45;102043.53;;;20.75;46.57
71424;BME280;59240;51.370;-0.486;2023-04-30T10:47:12;102043.53;;;20.75;46.05
71424;BME280;59240;51.370;-0.486;2023-04-30T10:49:38;102037.03;;;20.83;46.41
71424;BME280;59240;51.370;-0.486;2023-04-30T10:52:09;102048.63;;;20.99;45.79
71424;BME280;59240;51.370;-0.486;2023-04-30T10:54:37;102032.25;;;20.91;45.17
71424;BME280;59240;51.370;-0.486;2023-04-30T10:57:14;102045.50;;;21.10;43.70
71424;BME280;59240;51.370;-0.486;2023-04-30T11:02:18;102029.69;;;21.27;45.04
71424;BME280;59240;51.370;-0.486;2023-04-30T11:07:33;102028.00;;;21.45;44.38
71424;BME280;59240;51.370;-0.486;2023-04-30T11:10:01;102037.81;;;21.43;43.24
71424;BME280;59240;51.370;-0.486;2023-04-30T11:12:28;102025.63;;;21.39;43.71
71424;BME280;59240;51.370;-0.486;2023-04-30T11:15:06;102025.53;;;21.40;41.47
71424;BME280;59240;51.370;-0.486;2023-04-30T11:17:33;101990.00;;;21.25;43.37
71424;BME280;59240;51.370;-0.486;2023-04-30T11:20:00;102007.53;;;21.29;43.27
71424;BME280;59240;51.370;-0.486;2023-04-30T11:22:27;101993.66;;;21.23;43.82
71424;BME280;59240;51.370;-0.486;2023-04-30T11:27:36;101997.16;;;21.23;43.08
71424;BME280;59240;51.370;-0.486;2023-04-30T11:30:09;102007.53;;;21.29;41.40
71424;BME280;59240;51.370;-0.486;2023-04-30T11:32:37;101989.91;;;21.28;43.02
71424;BME280;59240;51.370;-0.486;2023-04-30T11:35:05;101985.50;;;21.27;43.40
71424;BME280;59240;51.370;-0.486;2023-04-30T11:37:35;102004.78;;;21.50;43.41
71424;BME280;59240;51.370;-0.486;2023-04-30T11:40:05;101983.38;;;21.36;42.07
71424;BME280;59240;51.370;-0.486;2023-04-30T11:42:33;101978.63;;;21.23;42.08
71424;BME280;59240;51.370;-0.486;2023-04-30T11:45:12;101996.75;;;21.33;42.23
71424;BME280;59240;51.370;-0.486;2023-04-30T11:47:48;101975.81;;;21.26;40.29
71424;BME280;59240;51.370;-0.486;2023-04-30T11:50:24;101958.97;;;21.29;42.76
71424;BME280;59240;51.370;-0.486;2023-04-30T11:52:58;101978.41;;;21.47;43.69
71424;BME280;59240;51.370;-0.486;2023-04-30T11:55:28;101977.16;;;21.54;41.47
71424;BME280;59240;51.370;-0.486;2023-04-30T11:57:56;101964.91;;;21.51;42.67
71424;BME280;59240;51.370;-0.486;2023-04-30T12:00:27;101979.38;;;21.63;41.55
71424;BME280;59240;51.370;-0.486;2023-04-30T12:02:54;101985.53;;;21.64;41.86
71424;BME280;59240;51.370;-0.486;2023-04-30T12:05:23;101987.47;;;21.60;42.10
71424;BME280;59240;51.370;-0.486;2023-04-30T12:07:55;101977.97;;;21.56;40.02
71424;BME280;59240;51.370;-0.486;2023-04-30T12:10:23;101982.25;;;21.58;41.55
71424;BME280;59240;51.370;-0.486;2023-04-30T12:12:50;101972.38;;;21.62;41.45
71424;BME280;59240;51.370;-0.486;2023-04-30T12:15:23;101964.16;;;21.67;41.29
71424;BME280;59240;51.370;-0.486;2023-04-30T12:17:57;101969.03;;;21.76;41.08
71424;BME280;59240;51.370;-0.486;2023-04-30T12:20:29;101964.09;;;21.85;40.55
71424;BME280;59240;51.370;-0.486;2023-04-30T12:22:57;101952.34;;;21.91;41.10
71424;BME280;59240;51.370;-0.486;2023-04-30T12:25:24;101953.03;;;21.95;41.48
71424;BME280;59240;51.370;-0.486;2023-04-30T12:27:53;101952.03;;;21.97;40.83
71424;BME280;59240;51.370;-0.486;2023-04-30T12:30:24;101960.13;;;21.94;40.42
71424;BME280;59240;51.370;-0.486;2023-04-30T12:32:56;101959.72;;;22.02;41.21
71424;BME280;59240;51.370;-0.486;2023-04-30T12:35:26;101963.88;;;22.07;40.66
71424;BME280;59240;51.370;-0.486;2023-04-30T12:38:01;101946.63;;;21.99;39.79
71424;BME280;59240;51.370;-0.486;2023-04-30T12:40:27;101950.81;;;22.03;40.54
71424;BME280;59240;51.370;-0.486;2023-04-30T12:43:04;101950.06;;;22.01;39.35
71424;BME280;59240;51.370;-0.486;2023-04-30T12:45:53;101951.00;;;22.00;39.08
71424;BME280;59240;51.370;-0.486;2023-04-30T12:48:22;101945.69;;;22.00;40.16
71424;BME280;59240;51.370;-0.486;2023-04-30T12:50:57;101938.44;;;22.03;40.58
71424;BME280;59240;51.370;-0.486;2023-04-30T12:53:25;101925.41;;;21.99;40.29
71424;BME280;59240;51.370;-0.486;2023-04-30T12:56:18;101949.16;;;22.19;39.87
71424;BME280;59240;51.370;-0.486;2023-04-30T12:58:46;101944.59;;;22.21;40.01
71424;BME280;59240;51.370;-0.486;2023-04-30T13:01:19;101945.22;;;22.26;39.79
71424;BME280;59240;51.370;-0.486;2023-04-30T13:03:50;101946.00;;;22.28;39.24
71424;BME280;59240;51.370;-0.486;2023-04-30T13:06:20;101944.75;;;22.35;40.50
71424;BME280;59240;51.370;-0.486;2023-04-30T13:08:47;101945.91;;;22.47;38.68
71424;BME280;59240;51.370;-0.486;2023-04-30T13:11:24;101949.63;;;22.43;38.45
71424;BME280;59240;51.370;-0.486;2023-04-30T13:13:52;101945.00;;;22.31;38.47
71424;BME280;59240;51.370;-0.486;2023-04-30T13:16:21;101944.16;;;22.30;38.58
71424;BME280;59240;51.370;-0.486;2023-04-30T13:18:48;101949.50;;;22.29;39.01
71424;BME280;59240;51.370;-0.486;2023-04-30T13:21:14;101956.47;;;22.31;39.19
71424;BME280;59240;51.370;-0.486;2023-04-30T13:23:41;101951.16;;;22.31;39.15
71424;BME280;59240;51.370;-0.486;2023-04-30T13:26:18;101940.00;;;22.25;38.47